Time;durP1;ratioP1;P1;durP2;ratioP2;P2;SDS_P1;SDS_P2;PMS_P1;PMS_P2;Temp;Humidity;BMP_temperature;BMP_pressure;BME280_temperature;BME280_humidity;BME280_pressure;Samples;Min_cycle;Max_cycle;Signal;HPM_P1;HPM_P2
2022/03/21 00:02:08;;;;;;;;;;;8.40;77.30;;;;;;5079278;28;19913;-70
2022/03/21 00:04:34;;;;;;;;;;;8.40;77.50;;;;;;5068788;28;19912;-70
2022/03/21 00:06:59;;;;;;;;;;;8.40;77.50;;;;;;5084525;28;20390;-70
2022/03/21 00:09:25;;;;;;;;;;;8.30;77.40;;;;;;5083963;28;19912;-70
2022/03/21 00:11:50;;;;;;;;;;;8.40;77.50;;;;;;5084166;28;19916;-69
2022/03/21 00:14:16;;;;;;;;;;;8.30;77.50;;;;;;5082990;28;20061;-70
2022/03/21 00:16:43;;;;;;;;;;;8.30;77.60;;;;;;5082948;28;19920;-70
2022/03/21 00:19:08;;;;;;;;;;;8.30;77.60;;;;;;5070816;28;20428;-69
2022/03/21 00:21:35;;;;;;;;;;;8.30;77.60;;;;;;5082927;28;19919;-70
2022/03/21 00:24:00;;;;;;;;;;;8.30;77.60;;;;;;5082266;28;19912;-69
2022/03/21 00:26:26;;;;;;;;;;;8.30;77.70;;;;;;5080484;28;19919;-69
2022/03/21 00:28:51;;;;;;;;;;;8.30;77.60;;;;;;5081147;28;19991;-70
2022/03/21 00:31:17;;;;;;;;;;;8.30;77.80;;;;;;5082607;28;20039;-70
2022/03/21 00:33:42;;;;;;;;;;;8.30;77.80;;;;;;5083019;28;20100;-70
2022/03/21 00:36:08;;;;;;;;;;;8.30;77.80;;;;;;5079821;28;19912;-69
2022/03/21 00:38:37;;;;;;;;;;;8.30;77.90;;;;;;5084836;28;19916;-70
2022/03/21 00:41:04;;;;;;;;;;;8.30;77.90;;;;;;5083376;28;19966;-70
2022/03/21 00:43:30;;;;;;;;;;;8.20;77.90;;;;;;5083343;28;19955;-69
2022/03/21 00:45:57;;;;;;;;;;;8.30;77.80;;;;;;5083766;28;19919;-69
2022/03/21 00:48:23;;;;;;;;;;;8.20;77.80;;;;;;5082595;28;19953;-70
2022/03/21 00:50:49;;;;;;;;;;;8.20;77.60;;;;;;5067825;28;19916;-70
2022/03/21 00:53:16;;;;;;;;;;;8.20;77.80;;;;;;5083176;28;19971;-70
2022/03/21 00:55:42;;;;;;;;;;;8.20;77.90;;;;;;5083327;28;20382;-70
2022/03/21 00:58:08;;;;;;;;;;;8.20;77.90;;;;;;5080903;28;19920;-70
2022/03/21 01:00:33;;;;;;;;;;;8.20;78.00;;;;;;5079283;28;19960;-70
2022/03/21 01:03:00;;;;;;;;;;;8.20;77.90;;;;;;5078269;28;19912;-70
2022/03/21 01:05:26;;;;;;;;;;;8.20;78.10;;;;;;5082157;28;20426;-69
2022/03/21 01:07:52;;;;;;;;;;;8.20;78.10;;;;;;5082601;28;20007;-70
2022/03/21 01:10:18;;;;;;;;;;;8.20;78.00;;;;;;5069476;28;19908;-70
2022/03/21 01:12:44;;;;;;;;;;;8.20;77.90;;;;;;5085276;28;19924;-70
2022/03/21 01:15:13;;;;;;;;;;;8.20;78.20;;;;;;5084792;28;19919;-70
2022/03/21 01:17:38;;;;;;;;;;;8.20;78.30;;;;;;5084942;28;19912;-70
2022/03/21 01:20:04;;;;;;;;;;;8.20;78.30;;;;;;5084877;28;19915;-70
2022/03/21 01:22:30;;;;;;;;;;;8.20;78.30;;;;;;5086190;28;20490;-70
2022/03/21 01:24:55;;;;;;;;;;;8.20;78.40;;;;;;5086949;28;19916;-69
2022/03/21 01:27:21;;;;;;;;;;;8.10;78.30;;;;;;5082915;28;19912;-69
2022/03/21 01:29:47;;;;;;;;;;;8.10;78.30;;;;;;5086144;28;19970;-70
2022/03/21 01:32:13;;;;;;;;;;;8.10;78.40;;;;;;5086283;28;20352;-69
2022/03/21 01:34:38;;;;;;;;;;;8.10;78.20;;;;;;5085617;28;20401;-70
2022/03/21 01:37:03;;;;;;;;;;;8.10;78.40;;;;;;5086669;28;19916;-69
2022/03/21 01:39:29;;;;;;;;;;;8.10;78.30;;;;;;5071527;28;19911;-69
2022/03/21 01:41:54;;;;;;;;;;;8.10;78.30;;;;;;5085616;28;19909;-69
2022/03/21 01:44:20;;;;;;;;;;;8.10;78.30;;;;;;5083926;28;19912;-70
2022/03/21 01:46:46;;;;;;;;;;;8.10;78.50;;;;;;5083393;28;19916;-70
2022/03/21 01:49:12;;;;;;;;;;;8.10;78.50;;;;;;5086946;28;19981;-70
2022/03/21 01:51:38;;;;;;;;;;;8.10;78.50;;;;;;5086423;28;19912;-70
2022/03/21 01:56:48;;;;;;;;;;;8.10;78.70;;;;;;5081799;28;19926;-70
2022/03/21 01:59:14;;;;;;;;;;;8.10;78.70;;;;;;5086949;28;20022;-70
2022/03/21 02:01:40;;;;;;;;;;;8.10;78.70;;;;;;5084900;28;20602;-70
2022/03/21 02:04:06;;;;;;;;;;;8.00;78.70;;;;;;5086357;28;19916;-70
2022/03/21 02:06:32;;;;;;;;;;;8.00;78.50;;;;;;5084173;28;20034;-70
2022/03/21 02:08:58;;;;;;;;;;;8.00;78.50;;;;;;5085204;28;20012;-70
2022/03/21 02:11:25;;;;;;;;;;;8.00;78.50;;;;;;5084771;28;20028;-70
2022/03/21 02:13:52;;;;;;;;;;;8.00;78.70;;;;;;5086803;28;19916;-69
2022/03/21 02:16:18;;;;;;;;;;;8.00;78.60;;;;;;5085029;28;20329;-69
2022/03/21 02:18:45;;;;;;;;;;;8.00;78.60;;;;;;5072099;28;19912;-70
2022/03/21 02:21:22;;;;;;;;;;;8.10;78.80;;;;;;5084034;28;19920;-70
2022/03/21 02:23:52;;;;;;;;;;;8.00;78.50;;;;;;5085420;28;19912;-70
2022/03/21 02:26:18;;;;;;;;;;;8.00;78.70;;;;;;5084164;28;19962;-70
2022/03/21 02:28:44;;;;;;;;;;;8.00;78.90;;;;;;5080077;28;19912;-70
2022/03/21 02:31:10;;;;;;;;;;;8.00;78.70;;;;;;5083413;28;19915;-69
2022/03/21 02:33:36;;;;;;;;;;;8.00;78.70;;;;;;5083985;28;20371;-69
2022/03/21 02:36:01;;;;;;;;;;;8.00;78.60;;;;;;5072832;28;19916;-69
2022/03/21 02:38:27;;;;;;;;;;;8.00;78.90;;;;;;5085378;28;19973;-70
2022/03/21 02:40:53;;;;;;;;;;;8.00;78.70;;;;;;5083646;28;19912;-69
2022/03/21 02:43:18;;;;;;;;;;;8.00;78.90;;;;;;5083327;28;19954;-70
2022/03/21 02:45:44;;;;;;;;;;;8.00;79.00;;;;;;5086746;28;19947;-69
2022/03/21 02:48:13;;;;;;;;;;;8.00;79.00;;;;;;5086101;28;20420;-70
2022/03/21 02:50:59;;;;;;;;;;;7.90;79.00;;;;;;5082191;28;20010;-70
2022/03/21 02:53:26;;;;;;;;;;;7.90;79.00;;;;;;5083056;28;19916;-69
2022/03/21 02:55:55;;;;;;;;;;;7.90;78.70;;;;;;5082060;28;19912;-69
2022/03/21 02:58:20;;;;;;;;;;;7.90;78.90;;;;;;5083445;28;19916;-70
2022/03/21 03:00:46;;;;;;;;;;;7.90;79.10;;;;;;5084803;28;19915;-70
2022/03/21 03:03:11;;;;;;;;;;;7.90;79.10;;;;;;5081077;28;19916;-69
2022/03/21 03:05:37;;;;;;;;;;;7.90;79.00;;;;;;5083222;28;20331;-70
2022/03/21 03:08:03;;;;;;;;;;;7.90;79.20;;;;;;5085226;28;19918;-69
2022/03/21 03:10:29;;;;;;;;;;;7.80;79.30;;;;;;5086103;28;19973;-70
2022/03/21 03:12:54;;;;;;;;;;;7.80;79.30;;;;;;5084059;28;20061;-70
2022/03/21 03:15:20;;;;;;;;;;;7.80;78.70;;;;;;5083421;28;20678;-70
2022/03/21 03:17:45;;;;;;;;;;;7.80;79.10;;;;;;5083487;28;19916;-70
2022/03/21 03:20:12;;;;;;;;;;;7.80;79.10;;;;;;5085937;28;19912;-69
2022/03/21 03:22:38;;;;;;;;;;;7.80;79.20;;;;;;5071097;28;20607;-70
2022/03/21 03:25:04;;;;;;;;;;;7.80;79.50;;;;;;5083580;28;20015;-69
2022/03/21 03:27:31;;;;;;;;;;;7.80;79.40;;;;;;5083269;28;20285;-69
2022/03/21 03:29:57;;;;;;;;;;;7.70;79.80;;;;;;5081850;28;19917;-70
2022/03/21 03:32:23;;;;;;;;;;;7.70;79.40;;;;;;5065699;28;20608;-69
2022/03/21 03:34:48;;;;;;;;;;;7.70;80.10;;;;;;5069565;28;20500;-70
2022/03/21 03:37:14;;;;;;;;;;;7.70;80.00;;;;;;5083353;28;19920;-69
2022/03/21 03:39:39;;;;;;;;;;;7.70;80.30;;;;;;5084304;28;19915;-69
2022/03/21 03:42:06;;;;;;;;;;;7.70;80.20;;;;;;5083026;28;20306;-69
2022/03/21 03:44:32;;;;;;;;;;;7.60;80.30;;;;;;5084195;28;19921;-69
2022/03/21 03:46:57;;;;;;;;;;;7.60;79.90;;;;;;5082748;28;19909;-70
2022/03/21 03:49:23;;;;;;;;;;;7.60;80.30;;;;;;5083800;28;19916;-69
2022/03/21 03:51:49;;;;;;;;;;;7.60;80.00;;;;;;5070031;28;19917;-69
2022/03/21 03:54:15;;;;;;;;;;;7.60;80.30;;;;;;5085037;28;20354;-69
2022/03/21 03:56:40;;;;;;;;;;;7.60;80.40;;;;;;5085270;28;19940;-69
2022/03/21 03:59:06;;;;;;;;;;;7.60;80.20;;;;;;5082963;28;20241;-69
2022/03/21 04:01:31;;;;;;;;;;;7.60;80.90;;;;;;5080781;28;20485;-70
2022/03/21 04:03:59;;;;;;;;;;;7.50;80.90;;;;;;5080922;28;19935;-70
2022/03/21 04:06:25;;;;;;;;;;;7.50;80.70;;;;;;5084500;28;19908;-69
2022/03/21 04:08:51;;;;;;;;;;;7.50;81.30;;;;;;5085239;28;20403;-70
2022/03/21 04:11:17;;;;;;;;;;;7.50;81.20;;;;;;5084504;28;19938;-70
2022/03/21 04:13:43;;;;;;;;;;;7.50;81.60;;;;;;5082154;28;19975;-70
2022/03/21 04:16:09;;;;;;;;;;;7.50;81.60;;;;;;5080594;28;19926;-70
2022/03/21 04:18:35;;;;;;;;;;;7.50;81.60;;;;;;5082397;28;19981;-69
2022/03/21 04:21:00;;;;;;;;;;;7.40;81.60;;;;;;5084939;28;20000;-70
2022/03/21 04:23:26;;;;;;;;;;;7.40;81.80;;;;;;5083813;28;19973;-69
2022/03/21 04:25:51;;;;;;;;;;;7.40;81.80;;;;;;5084079;28;20033;-69
2022/03/21 04:28:17;;;;;;;;;;;7.40;81.80;;;;;;5084423;28;20450;-70
2022/03/21 04:30:43;;;;;;;;;;;7.40;82.10;;;;;;5083375;28;19977;-69
2022/03/21 04:33:09;;;;;;;;;;;7.40;82.10;;;;;;5066366;28;19915;-70
2022/03/21 04:35:36;;;;;;;;;;;7.40;82.00;;;;;;5081430;28;19919;-69
2022/03/21 04:38:01;;;;;;;;;;;7.30;81.90;;;;;;5083404;28;20329;-70
2022/03/21 04:40:27;;;;;;;;;;;7.30;82.00;;;;;;5080478;28;19954;-69
2022/03/21 04:42:52;;;;;;;;;;;7.30;82.00;;;;;;5083448;28;19939;-70
2022/03/21 04:45:18;;;;;;;;;;;7.30;82.00;;;;;;5088625;28;19912;-69
2022/03/21 04:47:44;;;;;;;;;;;7.30;82.20;;;;;;5087598;28;19912;-69
2022/03/21 04:50:09;;;;;;;;;;;7.30;82.30;;;;;;5087469;28;19908;-70
2022/03/21 04:52:35;;;;;;;;;;;7.20;82.20;;;;;;5086874;28;20610;-69
2022/03/21 04:55:01;;;;;;;;;;;7.20;82.20;;;;;;5082725;28;19919;-70
2022/03/21 04:57:27;;;;;;;;;;;7.20;82.30;;;;;;5087101;28;19916;-70
2022/03/21 04:59:53;;;;;;;;;;;7.20;82.30;;;;;;5087248;28;19908;-70
2022/03/21 05:02:19;;;;;;;;;;;7.20;82.40;;;;;;5088216;28;19912;-69
2022/03/21 05:04:44;;;;;;;;;;;7.20;82.40;;;;;;5087029;28;20619;-70
2022/03/21 05:07:14;;;;;;;;;;;7.20;82.40;;;;;;5085867;28;19991;-69
2022/03/21 05:09:41;;;;;;;;;;;7.20;82.50;;;;;;5084533;28;19908;-69
2022/03/21 05:12:08;;;;;;;;;;;7.10;82.50;;;;;;5084798;28;19955;-70
2022/03/21 05:14:34;;;;;;;;;;;7.10;82.60;;;;;;5078060;28;19912;-69
2022/03/21 05:17:02;;;;;;;;;;;7.10;82.50;;;;;;5071949;28;19915;-70
2022/03/21 05:19:28;;;;;;;;;;;7.10;82.40;;;;;;5086389;28;19912;-69
2022/03/21 05:21:53;;;;;;;;;;;7.10;82.60;;;;;;5085903;28;19979;-70
2022/03/21 05:32:31;;;;;;;;;;;7.00;82.60;;;;;;5087354;28;19923;-69
2022/03/21 05:37:41;;;;;;;;;;;7.00;82.70;;;;;;5086591;28;19938;-69
2022/03/21 05:42:52;;;;;;;;;;;6.90;82.70;;;;;;5084057;28;19919;-70
2022/03/21 05:45:19;;;;;;;;;;;7.00;82.70;;;;;;5084883;28;19919;-70
2022/03/21 05:50:33;;;;;;;;;;;6.90;82.60;;;;;;5083746;28;19919;-69
2022/03/21 05:52:58;;;;;;;;;;;6.90;82.70;;;;;;5085938;28;20449;-70
2022/03/21 05:55:24;;;;;;;;;;;6.90;82.70;;;;;;5084835;28;19943;-69
2022/03/21 05:57:49;;;;;;;;;;;6.90;82.70;;;;;;5080703;28;20249;-70
2022/03/21 06:00:21;;;;;;;;;;;6.90;82.80;;;;;;5083260;28;19916;-70
2022/03/21 06:02:46;;;;;;;;;;;6.90;82.70;;;;;;5069821;28;19923;-69
2022/03/21 06:05:12;;;;;;;;;;;6.90;82.80;;;;;;5086261;28;19912;-69
2022/03/21 06:07:38;;;;;;;;;;;6.90;82.70;;;;;;5084726;28;20573;-70
2022/03/21 06:10:03;;;;;;;;;;;6.90;82.60;;;;;;5082806;28;20000;-70
2022/03/21 06:12:30;;;;;;;;;;;6.90;82.70;;;;;;5083319;28;19916;-70
2022/03/21 06:14:55;;;;;;;;;;;6.90;82.70;;;;;;5085587;28;19916;-69
2022/03/21 06:17:21;;;;;;;;;;;6.80;82.60;;;;;;5085399;28;19916;-69
2022/03/21 06:19:46;;;;;;;;;;;6.80;82.60;;;;;;5067699;28;20006;-70
2022/03/21 06:22:12;;;;;;;;;;;6.80;82.70;;;;;;5084680;28;20264;-70
2022/03/21 06:24:38;;;;;;;;;;;6.90;82.80;;;;;;5084737;28;19950;-69
2022/03/21 06:27:03;;;;;;;;;;;6.90;82.70;;;;;;5085487;28;19931;-69
2022/03/21 06:29:29;;;;;;;;;;;6.90;82.70;;;;;;5085241;28;19923;-69
2022/03/21 06:31:54;;;;;;;;;;;6.80;82.60;;;;;;5066326;28;19912;-70
2022/03/21 06:34:20;;;;;;;;;;;6.90;82.70;;;;;;5084786;28;19908;-70
2022/03/21 06:36:45;;;;;;;;;;;6.90;82.70;;;;;;5085708;28;20533;-70
2022/03/21 06:39:11;;;;;;;;;;;6.90;82.60;;;;;;5083002;28;19912;-70
2022/03/21 06:41:37;;;;;;;;;;;6.90;82.60;;;;;;5081264;28;19919;-69
2022/03/21 06:44:03;;;;;;;;;;;6.90;82.60;;;;;;5065352;28;20292;-69
2022/03/21 06:46:29;;;;;;;;;;;6.90;82.60;;;;;;5083908;28;19912;-69
2022/03/21 06:48:54;;;;;;;;;;;6.90;82.60;;;;;;5069450;28;19916;-70
2022/03/21 06:51:19;;;;;;;;;;;6.90;82.40;;;;;;5083777;28;19923;-70
2022/03/21 06:53:45;;;;;;;;;;;6.90;82.40;;;;;;5084850;28;19915;-70
2022/03/21 06:56:10;;;;;;;;;;;6.90;82.50;;;;;;5084056;28;19920;-70
2022/03/21 06:58:36;;;;;;;;;;;6.90;82.40;;;;;;5083779;28;19936;-69
2022/03/21 07:01:01;;;;;;;;;;;6.90;82.30;;;;;;5084439;28;19966;-69
2022/03/21 07:03:28;;;;;;;;;;;6.90;82.30;;;;;;5066259;28;19921;-70
2022/03/21 07:05:54;;;;;;;;;;;6.90;82.30;;;;;;5084893;28;19922;-70
2022/03/21 07:08:20;;;;;;;;;;;6.90;82.20;;;;;;5083719;28;19908;-70
2022/03/21 07:10:45;;;;;;;;;;;6.90;82.10;;;;;;5082918;28;19923;-70
2022/03/21 07:13:12;;;;;;;;;;;6.90;82.10;;;;;;5083984;28;19920;-70
2022/03/21 07:15:37;;;;;;;;;;;7.00;82.30;;;;;;5061753;28;19912;-70
2022/03/21 07:18:03;;;;;;;;;;;6.90;82.00;;;;;;5079246;28;19912;-70
2022/03/21 07:20:29;;;;;;;;;;;7.00;82.00;;;;;;5081645;28;19946;-70
2022/03/21 07:22:55;;;;;;;;;;;7.00;81.90;;;;;;5084219;28;20007;-69
2022/03/21 07:25:22;;;;;;;;;;;7.00;81.80;;;;;;5084408;28;19943;-69
2022/03/21 07:27:47;;;;;;;;;;;7.00;81.60;;;;;;5083914;28;20537;-70
2022/03/21 07:30:13;;;;;;;;;;;7.00;81.50;;;;;;5083649;28;19965;-69
2022/03/21 07:32:42;;;;;;;;;;;7.00;81.40;;;;;;5082650;28;20044;-70
2022/03/21 07:35:08;;;;;;;;;;;7.00;81.40;;;;;;5083189;28;20029;-70
2022/03/21 07:37:49;;;;;;;;;;;7.10;81.30;;;;;;5083972;28;19982;-70
2022/03/21 07:40:15;;;;;;;;;;;7.10;81.30;;;;;;5063745;28;19916;-69
2022/03/21 07:42:41;;;;;;;;;;;7.10;81.00;;;;;;5081701;28;19984;-70
2022/03/21 07:47:51;;;;;;;;;;;7.20;81.00;;;;;;5082181;28;20572;-70
2022/03/21 07:50:19;;;;;;;;;;;7.20;80.80;;;;;;5082008;28;19909;-70
2022/03/21 07:52:45;;;;;;;;;;;7.30;80.70;;;;;;5079002;28;19924;-69
2022/03/21 07:55:10;;;;;;;;;;;7.40;80.70;;;;;;5080950;28;19916;-70
2022/03/21 07:57:36;;;;;;;;;;;7.40;80.60;;;;;;5083740;28;20614;-70
2022/03/21 08:00:01;;;;;;;;;;;7.50;80.60;;;;;;5083456;28;19916;-70
2022/03/21 08:02:27;;;;;;;;;;;7.60;80.50;;;;;;5083843;28;19916;-70
2022/03/21 08:04:53;;;;;;;;;;;7.70;80.00;;;;;;5082654;28;19912;-70
2022/03/21 08:07:18;;;;;;;;;;;7.70;79.80;;;;;;5082085;28;19916;-70
2022/03/21 08:09:46;;;;;;;;;;;7.80;79.60;;;;;;5083082;28;19916;-70
2022/03/21 08:12:11;;;;;;;;;;;7.90;79.40;;;;;;5081983;28;20777;-70
2022/03/21 08:14:37;;;;;;;;;;;8.00;79.40;;;;;;5083674;28;20013;-70
2022/03/21 08:17:03;;;;;;;;;;;8.00;79.00;;;;;;5083539;28;19908;-69
2022/03/21 08:19:29;;;;;;;;;;;8.10;78.70;;;;;;5088087;28;19916;-70
2022/03/21 08:21:54;;;;;;;;;;;8.20;78.70;;;;;;5088831;28;20061;-69
2022/03/21 08:24:21;;;;;;;;;;;8.30;78.10;;;;;;5089678;28;19916;-69
2022/03/21 08:26:47;;;;;;;;;;;8.40;77.80;;;;;;5088583;28;19946;-70
2022/03/21 08:29:13;;;;;;;;;;;8.40;77.70;;;;;;5087254;28;20470;-69
2022/03/21 08:31:38;;;;;;;;;;;8.50;77.70;;;;;;5078494;28;19990;-70
2022/03/21 08:34:04;;;;;;;;;;;8.60;77.30;;;;;;5091472;28;19934;-69
2022/03/21 08:36:30;;;;;;;;;;;8.60;76.80;;;;;;5090427;28;20348;-69
2022/03/21 08:38:56;;;;;;;;;;;8.70;76.80;;;;;;5091549;28;19916;-69
2022/03/21 08:41:21;;;;;;;;;;;8.80;76.70;;;;;;5089486;28;19912;-70
2022/03/21 08:43:47;;;;;;;;;;;8.80;76.70;;;;;;5091619;28;19924;-70
2022/03/21 08:46:13;;;;;;;;;;;8.90;76.60;;;;;;5090853;28;19955;-70
2022/03/21 08:51:23;;;;;;;;;;;9.00;76.00;;;;;;5087230;28;19946;-70
2022/03/21 08:53:49;;;;;;;;;;;9.10;76.10;;;;;;5070950;28;19912;-69
2022/03/21 08:56:14;;;;;;;;;;;9.20;75.80;;;;;;5090095;28;19916;-69
2022/03/21 08:58:40;;;;;;;;;;;9.20;75.70;;;;;;5089980;28;19957;-70
2022/03/21 09:01:05;;;;;;;;;;;9.20;75.50;;;;;;5090289;28;20591;-70
2022/03/21 09:03:31;;;;;;;;;;;9.30;75.40;;;;;;5089729;28;19912;-70
2022/03/21 09:05:56;;;;;;;;;;;9.30;75.30;;;;;;5087649;28;20331;-70
2022/03/21 09:08:22;;;;;;;;;;;9.40;75.30;;;;;;5077964;28;19916;-70
2022/03/21 09:10:48;;;;;;;;;;;9.40;75.30;;;;;;5087048;28;19919;-69
2022/03/21 09:13:14;;;;;;;;;;;9.50;75.10;;;;;;5087906;28;19950;-69
2022/03/21 09:15:41;;;;;;;;;;;9.50;75.10;;;;;;5089525;28;20001;-70
2022/03/21 09:18:06;;;;;;;;;;;9.60;75.10;;;;;;5089452;28;20637;-69
2022/03/21 09:20:32;;;;;;;;;;;9.60;74.90;;;;;;5090806;28;20003;-70
2022/03/21 09:22:57;;;;;;;;;;;9.60;75.00;;;;;;5089901;28;19908;-69
2022/03/21 09:25:23;;;;;;;;;;;9.60;74.80;;;;;;5076377;28;20420;-69
2022/03/21 09:27:48;;;;;;;;;;;9.70;75.00;;;;;;5086500;28;19912;-70
2022/03/21 09:30:14;;;;;;;;;;;9.70;74.50;;;;;;5073397;28;19912;-69
2022/03/21 09:32:39;;;;;;;;;;;9.80;75.00;;;;;;5086095;28;19913;-69
2022/03/21 09:35:05;;;;;;;;;;;9.80;74.60;;;;;;5071566;28;19912;-69
2022/03/21 09:37:32;;;;;;;;;;;9.90;74.70;;;;;;5080133;28;20363;-69
2022/03/21 09:39:58;;;;;;;;;;;9.90;74.60;;;;;;5085884;28;19919;-69
2022/03/21 09:42:24;;;;;;;;;;;9.90;74.40;;;;;;5069149;28;19916;-69
2022/03/21 09:44:52;;;;;;;;;;;10.00;74.70;;;;;;5085730;28;20405;-69
2022/03/21 09:50:04;;;;;;;;;;;10.00;74.40;;;;;;5084968;28;19942;-69
2022/03/21 09:52:30;;;;;;;;;;;10.10;74.70;;;;;;5082617;28;20313;-70
2022/03/21 09:54:55;;;;;;;;;;;10.10;74.40;;;;;;5083439;28;20046;-70
2022/03/21 09:57:21;;;;;;;;;;;10.10;74.50;;;;;;5083100;28;19997;-69
2022/03/21 09:59:46;;;;;;;;;;;10.20;74.50;;;;;;5085605;28;19912;-69
2022/03/21 10:02:16;;;;;;;;;;;10.20;74.50;;;;;;5085079;28;19981;-69
2022/03/21 10:04:43;;;;;;;;;;;10.30;74.50;;;;;;5086829;28;19922;-70
2022/03/21 10:07:10;;;;;;;;;;;10.30;74.30;;;;;;5085527;28;20525;-69
2022/03/21 10:09:35;;;;;;;;;;;10.30;74.10;;;;;;5086160;28;19940;-69
2022/03/21 10:12:02;;;;;;;;;;;10.40;74.40;;;;;;5083395;28;20555;-69
2022/03/21 10:14:28;;;;;;;;;;;10.40;74.40;;;;;;5085806;28;20623;-69
2022/03/21 10:16:55;;;;;;;;;;;10.50;74.40;;;;;;5083290;28;19981;-69
2022/03/21 10:19:20;;;;;;;;;;;10.60;74.10;;;;;;5079984;28;19917;-69
2022/03/21 10:21:59;;;;;;;;;;;10.60;74.20;;;;;;5082110;28;19913;-69
2022/03/21 10:24:24;;;;;;;;;;;10.70;73.90;;;;;;5084090;28;19908;-69
2022/03/21 10:26:50;;;;;;;;;;;10.70;74.10;;;;;;5084572;28;19922;-69
2022/03/21 10:29:15;;;;;;;;;;;10.70;74.10;;;;;;5072029;28;19908;-69
2022/03/21 10:31:46;;;;;;;;;;;10.80;73.90;;;;;;5082156;28;19916;-69
2022/03/21 10:34:16;;;;;;;;;;;10.90;74.60;;;;;;5084278;28;19920;-69
2022/03/21 10:37:02;;;;;;;;;;;10.90;73.90;;;;;;5082274;28;19916;-69
2022/03/21 10:39:28;;;;;;;;;;;11.00;74.00;;;;;;5064236;28;20304;-69
2022/03/21 10:42:01;;;;;;;;;;;11.00;74.60;;;;;;5082736;28;19912;-69
2022/03/21 10:44:27;;;;;;;;;;;11.10;73.90;;;;;;5081151;28;20546;-69
2022/03/21 10:46:53;;;;;;;;;;;11.10;73.90;;;;;;5080974;28;19908;-69
2022/03/21 10:49:29;;;;;;;;;;;11.20;74.00;;;;;;5084501;28;19920;-69
2022/03/21 10:51:55;;;;;;;;;;;11.30;74.10;;;;;;5083058;28;20002;-69
2022/03/21 10:54:37;;;;;;;;;;;11.40;73.90;;;;;;5084341;28;20619;-69
2022/03/21 10:57:03;;;;;;;;;;;11.50;73.90;;;;;;5083326;28;19964;-69
2022/03/21 10:59:28;;;;;;;;;;;11.50;73.80;;;;;;5084272;28;19912;-69
2022/03/21 11:02:08;;;;;;;;;;;11.60;73.80;;;;;;5079812;28;20049;-69
2022/03/21 11:04:34;;;;;;;;;;;11.70;73.80;;;;;;5080550;28;20009;-70
2022/03/21 11:07:00;;;;;;;;;;;11.80;73.80;;;;;;5083096;28;20016;-69
2022/03/21 11:09:25;;;;;;;;;;;12.00;73.60;;;;;;5084571;28;19912;-69
2022/03/21 11:11:51;;;;;;;;;;;12.10;73.50;;;;;;5069249;28;19919;-69
2022/03/21 11:14:17;;;;;;;;;;;12.20;73.30;;;;;;5083761;28;19912;-69
2022/03/21 11:16:42;;;;;;;;;;;12.30;73.40;;;;;;5081708;28;20567;-69
2022/03/21 11:19:08;;;;;;;;;;;12.40;73.50;;;;;;5080800;28;20020;-69
2022/03/21 11:21:33;;;;;;;;;;;12.50;73.40;;;;;;5082452;28;19920;-70
2022/03/21 11:24:00;;;;;;;;;;;12.70;73.40;;;;;;5082781;28;19912;-69
2022/03/21 11:26:30;;;;;;;;;;;12.80;73.90;;;;;;5084421;28;19912;-69
2022/03/21 11:29:15;;;;;;;;;;;12.90;73.00;;;;;;5079974;28;19912;-69
2022/03/21 11:31:57;;;;;;;;;;;13.00;73.00;;;;;;5067900;28;19912;-67
2022/03/21 11:34:26;;;;;;;;;;;13.20;72.80;;;;;;5084140;28;20315;-70
2022/03/21 11:36:52;;;;;;;;;;;13.30;72.60;;;;;;5083056;28;19908;-69
2022/03/21 11:39:17;;;;;;;;;;;13.40;72.40;;;;;;5084891;28;19916;-69
2022/03/21 11:42:01;;;;;;;;;;;13.50;72.80;;;;;;5081470;28;19908;-70
2022/03/21 11:44:27;;;;;;;;;;;13.60;72.40;;;;;;5081998;28;19923;-69
2022/03/21 11:46:52;;;;;;;;;;;13.70;72.20;;;;;;5080968;28;19912;-70
2022/03/21 11:49:18;;;;;;;;;;;13.80;72.20;;;;;;5081388;28;19998;-69
2022/03/21 11:51:45;;;;;;;;;;;13.90;72.70;;;;;;5082144;28;19924;-70
2022/03/21 11:54:29;;;;;;;;;;;14.00;72.10;;;;;;5083503;28;19912;-70
2022/03/21 11:56:55;;;;;;;;;;;14.10;72.30;;;;;;5081867;28;19916;-70
2022/03/21 11:59:33;;;;;;;;;;;14.20;72.10;;;;;;5083025;28;19919;-70
2022/03/21 12:02:07;;;;;;;;;;;14.20;72.50;;;;;;5083617;28;19908;-69
2022/03/21 12:04:33;;;;;;;;;;;14.30;71.90;;;;;;5084608;28;19951;-70
2022/03/21 12:07:19;;;;;;;;;;;14.40;71.90;;;;;;5081695;28;19950;-70
2022/03/21 12:09:48;;;;;;;;;;;14.50;72.50;;;;;;5053117;28;19941;-70
2022/03/21 12:12:14;;;;;;;;;;;14.50;71.90;;;;;;5083031;28;19916;-69
2022/03/21 12:14:46;;;;;;;;;;;14.60;71.60;;;;;;5084669;28;19915;-70
2022/03/21 12:17:11;;;;;;;;;;;14.70;72.00;;;;;;5083912;28;19909;-70
2022/03/21 12:19:54;;;;;;;;;;;14.70;71.80;;;;;;5082908;28;19908;-70
2022/03/21 12:22:29;;;;;;;;;;;14.80;71.60;;;;;;5067491;28;19926;-70
2022/03/21 12:24:59;;;;;;;;;;;14.90;72.00;;;;;;5082843;28;20355;-70
2022/03/21 12:27:32;;;;;;;;;;;14.90;71.80;;;;;;5082827;28;19923;-70
2022/03/21 12:30:16;;;;;;;;;;;15.00;71.80;;;;;;5081920;28;19919;-67
2022/03/21 12:32:48;;;;;;;;;;;15.00;71.70;;;;;;5082236;28;19912;-67
2022/03/21 12:35:32;;;;;;;;;;;15.10;72.10;;;;;;5080402;28;19912;-67
2022/03/21 12:38:01;;;;;;;;;;;15.20;72.20;;;;;;5062532;28;19913;-67
2022/03/21 12:40:27;;;;;;;;;;;15.20;72.10;;;;;;5081680;28;20024;-67
2022/03/21 12:42:54;;;;;;;;;;;15.30;72.30;;;;;;5082412;28;20019;-67
2022/03/21 12:45:20;;;;;;;;;;;15.30;72.00;;;;;;5084634;28;19916;-69
2022/03/21 12:47:46;;;;;;;;;;;15.40;72.10;;;;;;5084288;28;19914;-70
2022/03/21 12:50:18;;;;;;;;;;;15.40;72.30;;;;;;5083272;28;20022;-70
2022/03/21 12:52:51;;;;;;;;;;;15.40;72.30;;;;;;5079303;28;19916;-70
2022/03/21 12:55:16;;;;;;;;;;;15.40;72.30;;;;;;5066003;28;19912;-70
2022/03/21 12:57:58;;;;;;;;;;;15.50;72.60;;;;;;5083187;28;19940;-70
2022/03/21 13:00:26;;;;;;;;;;;15.50;72.30;;;;;;5081058;28;19912;-70
2022/03/21 13:02:55;;;;;;;;;;;15.60;72.50;;;;;;5081081;28;20566;-70
2022/03/21 13:10:53;;;;;;;;;;;15.70;72.30;;;;;;5087316;28;19919;-70
2022/03/21 13:13:18;;;;;;;;;;;15.80;72.50;;;;;;5062097;28;20637;-70
2022/03/21 13:15:44;;;;;;;;;;;15.80;72.20;;;;;;5086627;28;19977;-70
2022/03/21 13:18:09;;;;;;;;;;;15.80;72.20;;;;;;5085185;28;20432;-70
2022/03/21 13:20:40;;;;;;;;;;;15.90;71.60;;;;;;5087313;28;20411;-70
2022/03/21 13:23:06;;;;;;;;;;;15.90;71.80;;;;;;5072367;28;20300;-70
2022/03/21 13:25:31;;;;;;;;;;;15.90;72.30;;;;;;5085214;28;20019;-70
2022/03/21 13:28:09;;;;;;;;;;;16.00;71.70;;;;;;5085373;28;20020;-70
2022/03/21 13:30:35;;;;;;;;;;;16.00;72.20;;;;;;5084676;28;19916;-70
2022/03/21 13:33:00;;;;;;;;;;;16.00;72.00;;;;;;5085546;28;19911;-70
2022/03/21 13:35:26;;;;;;;;;;;16.10;72.50;;;;;;5085128;28;19925;-70
2022/03/21 13:37:58;;;;;;;;;;;16.00;72.30;;;;;;5070981;28;19920;-70
2022/03/21 13:40:27;;;;;;;;;;;16.10;72.30;;;;;;5085045;28;19962;-70
2022/03/21 13:42:53;;;;;;;;;;;16.10;72.00;;;;;;5084806;28;20504;-70
2022/03/21 13:45:19;;;;;;;;;;;16.10;71.60;;;;;;5088071;28;20034;-70
2022/03/21 13:47:45;;;;;;;;;;;16.20;71.60;;;;;;5086677;28;20007;-70
2022/03/21 13:50:11;;;;;;;;;;;16.20;71.80;;;;;;5086948;28;20069;-70
2022/03/21 13:52:41;;;;;;;;;;;16.30;71.60;;;;;;5087852;28;19991;-70
2022/03/21 13:55:07;;;;;;;;;;;16.30;72.00;;;;;;5085905;28;19935;-70
2022/03/21 13:57:46;;;;;;;;;;;16.30;71.70;;;;;;5082404;28;20299;-70
2022/03/21 14:00:12;;;;;;;;;;;16.40;72.00;;;;;;5086121;28;19915;-70
2022/03/21 14:02:38;;;;;;;;;;;16.40;71.90;;;;;;5085836;28;19920;-70
2022/03/21 14:05:20;;;;;;;;;;;16.40;71.40;;;;;;5086392;28;20433;-70
2022/03/21 14:07:47;;;;;;;;;;;16.50;71.60;;;;;;5085593;28;19933;-70
2022/03/21 14:10:14;;;;;;;;;;;16.50;71.50;;;;;;5085010;28;20006;-70
2022/03/21 14:12:42;;;;;;;;;;;16.40;71.60;;;;;;5084686;28;19916;-70
2022/03/21 14:15:09;;;;;;;;;;;16.50;71.70;;;;;;5084461;28;20300;-70
2022/03/21 14:17:35;;;;;;;;;;;16.50;71.30;;;;;;5085855;28;19916;-70
2022/03/21 14:20:01;;;;;;;;;;;16.50;71.50;;;;;;5086549;28;19916;-70
2022/03/21 14:22:26;;;;;;;;;;;16.50;71.30;;;;;;5085496;28;19912;-70
2022/03/21 14:24:52;;;;;;;;;;;16.60;71.40;;;;;;5084546;28;19920;-70
2022/03/21 14:27:17;;;;;;;;;;;16.60;70.90;;;;;;5082319;28;20421;-70
2022/03/21 14:29:43;;;;;;;;;;;16.60;71.50;;;;;;5086693;28;19915;-70
2022/03/21 14:32:08;;;;;;;;;;;16.60;71.20;;;;;;5083731;28;19969;-70
2022/03/21 14:34:34;;;;;;;;;;;16.60;71.50;;;;;;5082935;28;19950;-70
2022/03/21 14:37:00;;;;;;;;;;;16.60;71.50;;;;;;5082010;28;19912;-70
2022/03/21 14:39:25;;;;;;;;;;;16.60;71.50;;;;;;5086799;28;19999;-70
2022/03/21 14:41:51;;;;;;;;;;;16.60;71.50;;;;;;5085442;28;19908;-70
2022/03/21 14:44:18;;;;;;;;;;;16.60;71.20;;;;;;5085232;28;20019;-70
2022/03/21 14:46:44;;;;;;;;;;;16.60;71.30;;;;;;5087131;28;20353;-70
2022/03/21 14:49:10;;;;;;;;;;;16.70;71.40;;;;;;5084713;28;19973;-70
2022/03/21 14:51:35;;;;;;;;;;;16.70;71.10;;;;;;5082818;28;20631;-70
2022/03/21 14:54:01;;;;;;;;;;;16.70;71.30;;;;;;5072494;28;19934;-70
2022/03/21 14:56:28;;;;;;;;;;;16.70;71.10;;;;;;5085286;28;19993;-70
2022/03/21 14:58:56;;;;;;;;;;;16.70;70.90;;;;;;5085547;28;19916;-70